Time;durP1;ratioP1;P1;durP2;ratioP2;P2;SDS_P1;SDS_P2;PMS_P1;PMS_P2;Temp;Humidity;BMP_temperature;BMP_pressure;BME280_temperature;BME280_humidity;BME280_pressure;Samples;Min_cycle;Max_cycle;Signal;HPM_P1;HPM_P2
2022/04/28 00:02:04;;;;;;;6.23;3.73;;;;;;;7.48;83.96;97033.63;4996506;28;20209;-67
2022/04/28 00:04:30;;;;;;;7.33;3.93;;;;;;;7.26;82.13;97026.03;4995850;28;20218;-68
2022/04/28 00:06:57;;;;;;;7.30;3.73;;;;;;;7.09;83.08;97032.94;4996791;28;20288;-67
2022/04/28 00:09:23;;;;;;;7.83;3.80;;;;;;;7.11;82.72;97029.22;4996552;28;20230;-67
2022/04/28 00:11:51;;;;;;;8.40;4.37;;;;;;;7.20;83.53;97032.81;4996363;28;20207;-67
2022/04/28 00:14:19;;;;;;;8.70;4.10;;;;;;;7.29;83.34;97030.19;4996438;28;20206;-67
2022/04/28 00:16:46;;;;;;;8.80;3.40;;;;;;;6.85;82.90;97032.50;4996647;28;20206;-67
2022/04/28 00:19:12;;;;;;;7.77;3.70;;;;;;;6.89;83.11;97036.50;4996009;28;20241;-67
2022/04/28 00:21:39;;;;;;;9.03;4.17;;;;;;;6.91;83.91;97032.78;4996449;28;20288;-68
2022/04/28 00:24:06;;;;;;;7.73;4.07;;;;;;;6.96;84.65;97030.59;4996304;28;20203;-68
2022/04/28 00:26:33;;;;;;;7.70;3.70;;;;;;;6.87;83.35;97035.81;4996555;28;20288;-68
2022/04/28 00:28:59;;;;;;;10.37;4.50;;;;;;;6.86;87.76;97039.38;4996363;28;20226;-68
2022/04/28 00:31:27;;;;;;;8.80;4.13;;;;;;;6.94;85.45;97037.75;4996732;28;20210;-67
2022/04/28 00:33:55;;;;;;;7.63;4.53;;;;;;;6.87;87.09;97028.78;4995707;28;20202;-68
2022/04/28 00:36:22;;;;;;;7.83;4.33;;;;;;;6.64;85.00;97037.00;4996450;28;20203;-67
2022/04/28 00:38:48;;;;;;;7.53;4.00;;;;;;;6.81;85.66;97036.34;4995926;28;20226;-68
2022/04/28 00:41:15;;;;;;;6.63;3.77;;;;;;;6.63;85.23;97037.94;4996148;28;20696;-68
2022/04/28 00:43:48;;;;;;;12.00;4.97;;;;;;;6.98;84.94;97038.31;4995215;28;20213;-68
2022/04/28 00:46:14;;;;;;;13.43;4.90;;;;;;;6.64;84.66;97038.78;4996703;28;20313;-67
2022/04/28 00:51:27;;;;;;;11.13;4.33;;;;;;;6.47;82.94;97042.06;4995663;28;21041;-67
2022/04/28 00:53:55;;;;;;;10.27;4.83;;;;;;;6.60;83.96;97043.47;4996112;28;20207;-67
2022/04/28 00:56:21;;;;;;;9.90;4.40;;;;;;;6.61;82.82;97039.06;4996570;28;20675;-67
2022/04/28 00:58:49;;;;;;;8.90;4.47;;;;;;;6.59;82.58;97047.03;4995713;28;20249;-68
2022/04/28 01:01:16;;;;;;;6.57;3.73;;;;;;;6.46;81.66;97040.38;4995580;28;20271;-67
2022/04/28 01:03:46;;;;;;;10.63;4.90;;;;;;;6.34;81.62;97038.81;4995860;28;20738;-67
2022/04/28 01:06:12;;;;;;;8.97;4.30;;;;;;;6.25;83.81;97042.22;4996002;28;20210;-67
2022/04/28 01:08:40;;;;;;;8.70;4.30;;;;;;;6.41;85.47;97032.91;4995287;28;20703;-67
2022/04/28 01:11:06;;;;;;;9.77;5.00;;;;;;;6.36;85.80;97029.06;4995742;28;20222;-68
2022/04/28 01:13:33;;;;;;;12.13;5.70;;;;;;;6.38;86.96;97037.63;4995279;28;20210;-67
2022/04/28 01:16:00;;;;;;;12.00;5.67;;;;;;;6.32;88.61;97035.50;4995873;28;20214;-67
2022/04/28 01:18:26;;;;;;;13.73;5.37;;;;;;;6.29;90.05;97031.38;4995475;28;20214;-68
2022/04/28 01:20:55;;;;;;;10.93;5.97;;;;;;;6.39;90.55;97032.25;4995354;28;21237;-67
2022/04/28 01:23:23;;;;;;;14.90;5.97;;;;;;;6.58;86.14;97027.06;4995368;28;20218;-67
2022/04/28 01:25:49;;;;;;;11.67;5.77;;;;;;;6.31;90.33;97036.47;4995974;28;20206;-67
2022/04/28 01:28:15;;;;;;;12.27;5.63;;;;;;;6.32;90.59;97033.72;4995342;28;20583;-70
2022/04/28 01:30:42;;;;;;;12.60;6.17;;;;;;;6.36;92.65;97029.06;4994525;28;20203;-70
2022/04/28 01:33:09;;;;;;;15.23;6.23;;;;;;;6.48;92.00;97028.81;4995030;28;20287;-67
2022/04/28 01:35:35;;;;;;;14.60;6.07;;;;;;;6.51;91.95;97027.72;4995725;28;20214;-67
2022/04/28 01:38:02;;;;;;;12.23;6.17;;;;;;;6.52;92.26;97029.38;4995003;28;20202;-70
2022/04/28 01:40:30;;;;;;;12.53;5.90;;;;;;;6.65;89.56;97028.19;4995512;28;21354;-70
2022/04/28 01:42:56;;;;;;;14.73;6.83;;;;;;;6.44;88.89;97026.59;4994987;28;20210;-68
2022/04/28 01:45:23;;;;;;;12.53;6.47;;;;;;;6.36;89.73;97027.25;4994979;28;20202;-67
2022/04/28 01:47:49;;;;;;;13.67;6.50;;;;;;;6.49;88.55;97025.25;4995015;28;20214;-69
2022/04/28 01:50:16;;;;;;;12.00;5.67;;;;;;;6.52;86.90;97027.59;4995112;28;20261;-70
2022/04/28 01:55:26;;;;;;;14.23;6.50;;;;;;;6.48;90.79;97028.81;4995409;28;20259;-70
2022/04/28 01:57:54;;;;;;;13.27;6.37;;;;;;;6.61;92.14;97029.41;4994609;28;21110;-70
2022/04/28 02:00:21;;;;;;;15.90;7.30;;;;;;;6.56;90.09;97026.38;4995308;28;20233;-70
2022/04/28 02:02:47;;;;;;;14.63;6.83;;;;;;;6.40;91.63;97020.81;4994042;28;20700;-70
2022/04/28 02:05:14;;;;;;;16.17;7.10;;;;;;;6.46;91.35;97029.91;4994992;28;20697;-68
2022/04/28 02:07:41;;;;;;;14.93;7.03;;;;;;;6.42;90.00;97026.72;4995269;28;20693;-70
2022/04/28 02:10:08;;;;;;;15.37;7.00;;;;;;;6.43;91.01;97027.53;4994957;28;20241;-69
2022/04/28 02:12:35;;;;;;;15.30;7.60;;;;;;;6.42;92.06;97026.72;4994098;28;20217;-69
2022/04/28 02:15:03;;;;;;;15.43;6.60;;;;;;;6.60;89.91;97022.50;4994789;28;20202;-70
2022/04/28 02:17:34;;;;;;;17.70;7.17;;;;;;;6.42;91.94;97025.91;4994703;28;20963;-69
2022/04/28 02:20:03;;;;;;;15.93;8.37;;;;;;;6.50;92.79;97026.06;4994397;28;20215;-70
2022/04/28 02:22:30;;;;;;;18.90;7.43;;;;;;;6.17;94.73;97021.97;4993754;28;20215;-69
2022/04/28 02:24:56;;;;;;;15.40;7.47;;;;;;;6.30;92.25;97030.41;4994984;28;20211;-69
2022/04/28 02:27:24;;;;;;;15.53;7.57;;;;;;;6.20;92.45;97026.09;4994443;28;20623;-69
2022/04/28 02:29:51;;;;;;;19.80;8.47;;;;;;;6.18;91.52;97028.81;4993939;28;20230;-69
2022/04/28 02:32:18;;;;;;;19.87;8.73;;;;;;;6.42;94.25;97024.13;4993143;28;20209;-69
2022/04/28 02:34:51;;;;;;;17.77;8.63;;;;;;;6.51;94.14;97028.56;4993859;28;20407;-70
2022/04/28 02:37:18;;;;;;;19.40;9.07;;;;;;;6.15;93.81;97034.34;4991843;28;20226;-69
2022/04/28 02:39:45;;;;;;;18.07;8.67;;;;;;;6.22;94.29;97037.25;4994787;28;20233;-69
2022/04/28 02:42:11;;;;;;;17.43;8.20;;;;;;;6.28;92.63;97037.56;4993720;28;21085;-69
2022/04/28 02:44:38;;;;;;;17.60;8.63;;;;;;;6.21;92.32;97041.66;4994048;28;20239;-69
2022/04/28 02:47:04;;;;;;;20.23;7.83;;;;;;;6.19;92.12;97034.91;4994266;28;20203;-69
2022/04/28 02:49:32;;;;;;;20.97;8.30;;;;;;;6.37;94.62;97039.38;4994252;28;20226;-69
2022/04/28 02:51:59;;;;;;;12.73;6.73;;;;;;;6.12;90.00;97037.22;4994214;28;20206;-69
2022/04/28 02:54:27;;;;;;;24.33;8.87;;;;;;;5.98;91.48;97038.50;4993749;28;20214;-69
2022/04/28 02:56:53;;;;;;;16.63;8.00;;;;;;;6.02;92.09;97040.75;4994182;28;20662;-69
2022/04/28 02:59:20;;;;;;;17.33;7.20;;;;;;;6.20;90.09;97040.00;4993977;28;20275;-69
2022/04/28 03:01:46;;;;;;;20.07;7.90;;;;;;;6.03;95.03;97041.56;4994049;28;20701;-69
2022/04/28 03:04:14;;;;;;;19.63;8.13;;;;;;;6.11;92.69;97040.78;4993574;28;20210;-69
2022/04/28 03:12:10;;;;;;;19.50;8.47;;;;;;;6.29;92.26;97039.22;4993983;28;20257;-69
2022/04/28 03:14:36;;;;;;;15.93;7.60;;;;;;;6.06;88.42;97053.44;4993715;28;20207;-69
2022/04/28 03:17:03;;;;;;;16.13;7.97;;;;;;;5.95;88.16;97044.03;4993863;28;20387;-69
2022/04/28 03:19:30;;;;;;;17.83;7.80;;;;;;;5.95;91.40;97044.03;4994763;28;20227;-69
2022/04/28 03:21:58;;;;;;;14.27;6.73;;;;;;;6.15;90.27;97046.59;4993946;28;20686;-69
2022/04/28 03:24:24;;;;;;;17.37;8.50;;;;;;;5.99;89.60;97051.47;4993136;28;20211;-69
2022/04/28 03:26:50;;;;;;;20.83;8.00;;;;;;;6.07;87.69;97055.09;4993854;28;20705;-69
2022/04/28 03:29:17;;;;;;;19.63;8.83;;;;;;;5.98;88.79;97049.78;4993938;28;20235;-69
2022/04/28 03:31:44;;;;;;;15.23;7.27;;;;;;;6.11;88.71;97053.88;4993860;28;20438;-69
2022/04/28 03:34:10;;;;;;;16.57;8.00;;;;;;;6.04;86.79;97055.34;4993324;28;20206;-69
2022/04/28 03:36:52;;;;;;;15.80;7.17;;;;;;;5.89;85.28;97057.59;4993791;28;20206;-69
2022/04/28 03:39:20;;;;;;;19.93;6.93;;;;;;;6.05;83.20;97056.19;4993305;28;20226;-69
2022/04/28 03:41:47;;;;;;;15.57;6.90;;;;;;;5.71;84.41;97066.97;4993981;28;20215;-69
2022/04/28 03:44:14;;;;;;;15.30;7.57;;;;;;;5.78;84.60;97063.75;4993492;28;20761;-69
2022/04/28 03:46:40;;;;;;;17.00;7.40;;;;;;;5.83;86.36;97065.94;4993595;28;20202;-69
2022/04/28 03:49:07;;;;;;;25.10;7.30;;;;;;;5.75;87.37;97068.34;4993649;28;20242;-69
2022/04/28 03:51:33;;;;;;;15.17;7.07;;;;;;;5.78;85.64;97070.72;4993674;28;20198;-69
2022/04/28 03:54:00;;;;;;;15.47;7.30;;;;;;;5.77;85.21;97064.69;4993135;28;20860;-69
2022/04/28 03:56:31;;;;;;;15.80;7.27;;;;;;;5.92;87.38;97073.88;4996897;28;20255;-69
2022/04/28 03:58:58;;;;;;;16.70;8.13;;;;;;;5.68;85.96;97082.91;4997051;28;20707;-69
2022/04/28 04:01:24;;;;;;;19.60;6.87;;;;;;;5.81;86.68;97073.13;4996862;28;20235;-69
2022/04/28 04:03:51;;;;;;;17.90;8.03;;;;;;;5.84;88.77;97080.69;4996031;28;20222;-69
2022/04/28 04:06:18;;;;;;;19.00;7.90;;;;;;;5.84;86.77;97080.69;4997056;28;20202;-69
2022/04/28 04:08:45;;;;;;;14.00;6.93;;;;;;;5.72;85.80;97079.06;4996149;28;20226;-69
2022/04/28 04:11:12;;;;;;;17.73;7.50;;;;;;;5.74;86.26;97087.59;4996659;28;20287;-69
2022/04/28 04:13:40;;;;;;;18.97;7.17;;;;;;;5.80;87.99;97082.72;4996312;28;20202;-69
2022/04/28 04:16:06;;;;;;;18.20;7.30;;;;;;;5.68;86.58;97083.72;4996527;28;20280;-69
2022/04/28 04:18:33;;;;;;;16.07;7.93;;;;;;;5.77;87.68;97082.19;4996010;28;20211;-69
2022/04/28 04:21:00;;;;;;;19.00;8.20;;;;;;;5.80;88.66;97084.53;4997136;28;20203;-69
2022/04/28 04:23:26;;;;;;;19.10;9.00;;;;;;;5.72;91.29;97086.94;4995788;28;20218;-70
2022/04/28 04:25:53;;;;;;;19.27;8.37;;;;;;;5.86;89.65;97089.25;4995880;28;21241;-69
2022/04/28 04:28:19;;;;;;;16.90;8.03;;;;;;;5.70;91.00;97094.91;4993689;28;20213;-69
2022/04/28 04:33:31;;;;;;;17.90;8.50;;;;;;;5.99;91.89;97097.72;4995185;28;20248;-68
2022/04/28 04:35:58;;;;;;;20.93;9.10;;;;;;;6.05;92.51;97098.03;4996403;28;20236;-69
2022/04/28 04:38:24;;;;;;;19.80;8.80;;;;;;;6.03;93.78;97093.91;4996264;28;20305;-69
2022/04/28 04:40:51;;;;;;;19.17;8.80;;;;;;;6.15;90.97;97102.38;4995623;28;21131;-69
2022/04/28 04:43:17;;;;;;;19.20;8.63;;;;;;;6.18;92.41;97098.66;4995841;28;20210;-69
2022/04/28 04:45:44;;;;;;;18.73;8.70;;;;;;;6.34;92.50;97102.47;4996223;28;20456;-69
2022/04/28 04:48:12;;;;;;;21.50;9.17;;;;;;;6.42;94.62;97100.03;4995954;28;20203;-69
2022/04/28 04:50:40;;;;;;;21.13;9.10;;;;;;;6.40;95.36;97094.13;4996240;28;20891;-69
2022/04/28 04:53:07;;;;;;;21.03;10.07;;;;;;;6.65;94.71;97098.88;4995657;28;20209;-69
2022/04/28 04:55:34;;;;;;;17.10;9.07;;;;;;;6.61;93.63;97101.91;4995982;28;20207;-69
2022/04/28 04:58:01;;;;;;;17.63;8.77;;;;;;;6.68;91.25;97109.09;4996289;28;20202;-69
2022/04/28 05:00:27;;;;;;;19.37;8.87;;;;;;;6.76;91.25;97097.00;4995687;28;20333;-69
2022/04/28 05:02:53;;;;;;;21.23;9.40;;;;;;;6.82;91.89;97100.88;4995394;28;20896;-69
2022/04/28 05:05:21;;;;;;;21.43;9.80;;;;;;;7.07;91.79;97114.31;4995238;28;20434;-69
2022/04/28 05:07:48;;;;;;;18.30;8.73;;;;;;;6.88;91.93;97110.81;4995672;28;20215;-69
2022/04/28 05:10:14;;;;;;;17.90;8.20;;;;;;;6.95;92.54;97111.94;4995518;28;20234;-69
2022/04/28 05:12:41;;;;;;;24.03;9.20;;;;;;;7.08;93.33;97117.78;4995359;28;20211;-69
2022/04/28 05:15:08;;;;;;;21.13;10.00;;;;;;;7.35;94.31;97126.66;4996154;28;20202;-69
2022/04/28 05:17:36;;;;;;;20.57;9.60;;;;;;;7.69;92.86;97122.66;4995130;28;20218;-69
2022/04/28 05:20:03;;;;;;;18.37;8.93;;;;;;;7.60;92.45;97128.72;4995964;28;20226;-69
2022/04/28 05:22:31;;;;;;;20.67;8.70;;;;;;;7.86;92.18;97133.28;4995411;28;20682;-69
2022/04/28 05:24:57;;;;;;;19.37;8.90;;;;;;;7.80;92.60;97136.47;4995326;28;20207;-69
2022/04/28 05:27:24;;;;;;;22.67;10.10;;;;;;;7.90;93.87;97137.28;4996162;28;20229;-70
2022/04/28 05:29:50;;;;;;;22.57;10.23;;;;;;;8.05;94.30;97135.91;4992001;28;20237;-69
2022/04/28 05:32:18;;;;;;;25.37;12.33;;;;;;;7.96;96.77;97145.44;4994782;28;20221;-69
2022/04/28 05:34:44;;;;;;;24.33;9.93;;;;;;;8.08;97.87;97143.50;4995931;28;20217;-69
2022/04/28 05:37:12;;;;;;;23.47;10.30;;;;;;;8.35;97.64;97139.22;4996205;28;20210;-69
2022/04/28 05:39:41;;;;;;;24.00;10.60;;;;;;;8.64;97.14;97137.31;4995146;28;20710;-67
2022/04/28 05:42:08;;;;;;;25.97;11.80;;;;;;;8.72;96.54;97133.00;4994613;28;20214;-67
2022/04/28 05:47:19;;;;;;;25.50;11.10;;;;;;;8.76;97.40;97139.63;4995910;28;20592;-67
2022/04/28 05:49:46;;;;;;;22.80;10.60;;;;;;;8.93;97.78;97143.31;4994511;28;20714;-67
2022/04/28 05:52:12;;;;;;;26.63;11.40;;;;;;;8.93;98.92;97144.13;4994363;28;20218;-67
2022/04/28 05:54:40;;;;;;;23.77;11.57;;;;;;;9.22;98.04;97143.00;4995589;28;20218;-67
2022/04/28 05:57:07;;;;;;;26.03;11.00;;;;;;;9.19;97.36;97145.13;4995025;28;20210;-67
2022/04/28 05:59:34;;;;;;;25.40;10.70;;;;;;;9.34;97.42;97159.41;4994589;28;20724;-67
2022/04/28 06:02:02;;;;;;;24.37;10.40;;;;;;;9.38;97.96;97160.75;4995500;28;20583;-67
2022/04/28 06:04:28;;;;;;;22.40;10.67;;;;;;;9.22;99.69;97161.41;4994604;28;20570;-67
2022/04/28 06:06:55;;;;;;;28.97;11.17;;;;;;;9.59;98.91;97163.97;4994832;28;20639;-67
2022/04/28 06:09:22;;;;;;;27.00;11.00;;;;;;;9.71;98.98;97172.34;4995127;28;20250;-67
2022/04/28 06:11:50;;;;;;;23.40;11.30;;;;;;;9.93;98.79;97168.44;4994887;28;20230;-67
2022/04/28 06:14:16;;;;;;;24.30;10.77;;;;;;;9.71;98.44;97174.13;4993809;28;20210;-67
2022/04/28 06:16:42;;;;;;;20.67;10.07;;;;;;;9.84;99.85;97180.69;4994808;28;20206;-67
2022/04/28 06:19:09;;;;;;;20.80;10.20;;;;;;;9.88;99.01;97179.41;4994419;28;20231;-67
2022/04/28 06:21:36;;;;;;;24.30;10.10;;;;;;;9.85;98.83;97181.50;4994564;28;20226;-67
2022/04/28 06:24:03;;;;;;;22.87;10.37;;;;;;;10.05;96.89;97180.41;4994019;28;20238;-67
2022/04/28 06:26:30;;;;;;;26.10;10.70;;;;;;;10.14;96.78;97182.97;4995016;28;20568;-67
2022/04/28 06:28:57;;;;;;;26.30;11.33;;;;;;;10.36;99.47;97174.56;4992001;28;20795;-67
2022/04/28 06:31:24;;;;;;;25.10;9.97;;;;;;;10.15;96.71;97189.88;4994078;28;20253;-67
2022/04/28 06:33:51;;;;;;;25.77;10.93;;;;;;;10.35;93.89;97191.38;4994019;28;20642;-67
2022/04/28 06:36:17;;;;;;;24.63;10.30;;;;;;;10.28;96.26;97185.06;4994937;28;20206;-67
2022/04/28 06:38:43;;;;;;;24.87;10.30;;;;;;;10.66;97.24;97189.97;4994116;28;20222;-67
2022/04/28 06:41:10;;;;;;;20.97;10.67;;;;;;;10.76;96.68;97190.69;4994280;28;20206;-67
2022/04/28 06:43:37;;;;;;;22.40;10.90;;;;;;;11.00;94.54;97197.75;4994055;28;20203;-67
2022/04/28 06:46:14;;;;;;;20.70;9.77;;;;;;;11.22;93.85;97194.56;4994682;28;20234;-67
2022/04/28 06:48:41;;;;;;;20.27;9.77;;;;;;;10.95;93.02;97191.31;4994152;28;21300;-67
2022/04/28 06:51:08;;;;;;;18.50;10.30;;;;;;;11.05;93.87;97197.31;4994231;28;20353;-67
2022/04/28 06:53:34;;;;;;;19.93;9.93;;;;;;;11.07;96.07;97196.16;4993618;28;20214;-67
2022/04/28 06:56:01;;;;;;;24.80;10.60;;;;;;;11.05;96.15;97194.66;4994056;28;20205;-67
2022/04/28 06:58:27;;;;;;;24.93;10.17;;;;;;;11.55;95.46;97191.94;4995394;28;20207;-67
2022/04/28 07:00:54;;;;;;;26.13;10.20;;;;;;;11.64;92.28;97185.69;4994264;28;20218;-67
2022/04/28 07:03:22;;;;;;;16.43;8.10;;;;;;;12.02;91.68;97189.59;4992340;28;20209;-67
2022/04/28 07:05:48;;;;;;;18.23;9.20;;;;;;;11.88;93.20;97193.69;4992932;28;20590;-67
2022/04/28 07:08:15;;;;;;;16.77;8.57;;;;;;;11.88;88.70;97192.88;4994161;28;20209;-67
2022/04/28 07:10:41;;;;;;;17.93;8.80;;;;;;;11.79;90.49;97194.66;4993055;28;20603;-67
2022/04/28 07:13:08;;;;;;;18.53;9.53;;;;;;;11.90;87.38;97191.72;4992737;28;20217;-67
2022/04/28 07:15:35;;;;;;;18.43;8.10;;;;;;;11.88;90.91;97200.81;4994004;28;20202;-67
2022/04/28 07:18:03;;;;;;;19.20;8.47;;;;;;;12.06;87.87;97188.28;4993174;28;20260;-67
2022/04/28 07:20:32;;;;;;;18.73;8.73;;;;;;;12.16;91.53;97198.53;4993336;28;20267;-67
2022/04/28 07:23:00;;;;;;;20.13;9.27;;;;;;;12.37;88.79;97200.69;4992262;28;20693;-67
2022/04/28 07:25:26;;;;;;;20.13;9.27;;;;;;;12.30;89.23;97205.81;4993515;28;20230;-67
2022/04/28 07:27:53;;;;;;;15.73;7.90;;;;;;;12.48;85.48;97210.94;4990296;28;20598;-67
2022/04/28 07:30:20;;;;;;;15.70;7.73;;;;;;;12.88;85.51;97201.19;4995145;28;20524;-67
2022/04/28 07:32:47;;;;;;;12.63;6.93;;;;;;;12.88;81.65;97204.66;4995946;28;20557;-68
2022/04/28 07:35:13;;;;;;;14.90;7.37;;;;;;;12.96;83.06;97209.13;4996388;28;20214;-68
2022/04/28 07:37:41;;;;;;;17.20;8.00;;;;;;;13.25;81.67;97206.72;4996927;28;20663;-67
2022/04/28 07:40:09;;;;;;;16.87;7.17;;;;;;;13.39;80.86;97206.88;4996401;28;20233;-68
2022/04/28 07:42:35;;;;;;;17.83;9.07;;;;;;;13.28;82.58;97209.06;4995709;28;20202;-68
2022/04/28 07:45:02;;;;;;;15.60;8.05;;;;;;;13.54;80.94;97211.28;4996841;28;20209;-68
2022/04/28 07:47:28;;;;;;;15.07;7.43;;;;;;;13.50;80.59;97209.97;4996412;28;20215;-68
2022/04/28 07:49:55;;;;;;;18.23;8.82;;;;;;;13.67;81.48;97216.00;4996292;28;20226;-68
2022/04/28 07:52:22;;;;;;;16.35;8.13;;;;;;;13.46;79.47;97213.13;4995708;28;20222;-68
2022/04/28 07:54:50;;;;;;;17.30;8.40;;;;;;;13.66;80.74;97219.66;4996597;28;20214;-68
2022/04/28 07:57:17;;;;;;;17.60;8.10;;;;;;;13.57;81.88;97226.00;4996443;28;20213;-68
2022/04/28 07:59:44;;;;;;;14.57;7.43;;;;;;;13.61;81.44;97222.81;4996279;28;20735;-67
2022/04/28 08:02:11;;;;;;;18.23;7.78;;;;;;;13.56;80.39;97219.84;4995794;28;20652;-68
2022/04/28 08:04:38;;;;;;;16.27;8.07;;;;;;;14.09;82.12;97215.50;4996224;28;20207;-68
2022/04/28 08:07:05;;;;;;;11.57;6.47;;;;;;;14.42;75.08;97222.25;4996568;28;20199;-68
2022/04/28 08:09:31;;;;;;;10.25;5.78;;;;;;;14.21;71.03;97223.88;4996176;28;20710;-68
2022/04/28 08:11:59;;;;;;;9.18;5.07;;;;;;;14.77;68.70;97226.94;4996019;28;20222;-68
2022/04/28 08:14:26;;;;;;;10.97;5.93;;;;;;;14.55;69.25;97227.78;4995710;28;20207;-68
2022/04/28 08:16:53;;;;;;;10.70;5.25;;;;;;;14.57;71.07;97222.28;4996275;28;20214;-68
2022/04/28 08:19:20;;;;;;;10.77;5.80;;;;;;;14.99;68.74;97231.38;4996553;28;20234;-68
2022/04/28 08:21:47;;;;;;;10.18;5.43;;;;;;;14.86;67.55;97228.50;4996135;28;20211;-68
2022/04/28 08:24:13;;;;;;;9.38;4.93;;;;;;;14.80;68.55;97234.53;4995809;28;20215;-68
2022/04/28 08:26:40;;;;;;;11.90;5.72;;;;;;;15.06;67.17;97230.47;4996255;28;20213;-68
2022/04/28 08:29:08;;;;;;;11.23;5.55;;;;;;;15.20;64.06;97229.69;4992401;28;20230;-68
2022/04/28 08:31:38;;;;;;;10.20;4.90;;;;;;;14.95;65.66;97235.41;4995708;28;20226;-68
2022/04/28 08:34:04;;;;;;;9.40;5.00;;;;;;;14.99;67.76;97234.03;4994769;28;20911;-68
2022/04/28 08:36:30;;;;;;;9.68;5.28;;;;;;;15.29;63.39;97231.28;4995618;28;20211;-68
2022/04/28 08:38:57;;;;;;;8.60;4.93;;;;;;;15.30;63.37;97232.94;4995813;28;20261;-68
2022/04/28 08:41:32;;;;;;;10.40;4.93;;;;;;;15.60;63.87;97230.06;4995273;28;20206;-68
2022/04/28 08:44:01;;;;;;;12.02;5.63;;;;;;;15.67;64.19;97230.16;4995018;28;20644;-68
2022/04/28 08:49:14;;;;;;;7.82;4.50;;;;;;;15.87;63.99;97237.38;4995473;28;20257;-68
2022/04/28 08:51:43;;;;;;;10.13;5.32;;;;;;;15.73;65.35;97229.44;4995396;28;20703;-68
2022/04/28 08:54:11;;;;;;;11.18;5.22;;;;;;;15.93;62.09;97234.81;4994873;28;20202;-68
2022/04/28 08:56:38;;;;;;;7.15;4.28;;;;;;;15.81;59.02;97234.66;4995907;28;20203;-69
2022/04/28 08:59:04;;;;;;;9.73;4.75;;;;;;;16.07;61.59;97235.81;4995419;28;20268;-68
2022/04/28 09:01:32;;;;;;;9.43;4.53;;;;;;;16.36;58.08;97235.78;4995453;28;20202;-68
2022/04/28 09:04:02;;;;;;;10.48;4.47;;;;;;;16.35;55.64;97237.59;4994985;28;20207;-68
2022/04/28 09:06:30;;;;;;;8.93;4.70;;;;;;;16.34;59.07;97241.25;4994967;28;20210;-68
2022/04/28 09:08:58;;;;;;;6.68;4.15;;;;;;;16.52;55.17;97233.66;4994676;28;20218;-68
2022/04/28 09:11:27;;;;;;;8.73;4.55;;;;;;;16.70;56.63;97242.03;4994817;28;20722;-68
2022/04/28 09:14:12;;;;;;;11.75;5.93;;;;;;;16.77;58.40;97240.28;4994457;28;20202;-68
2022/04/28 09:16:45;;;;;;;10.30;5.40;;;;;;;16.73;60.32;97241.69;4995829;28;20560;-68
2022/04/28 09:19:14;;;;;;;7.38;4.60;;;;;;;16.88;56.72;97245.91;4994920;28;20257;-68
2022/04/28 09:21:41;;;;;;;6.70;3.97;;;;;;;17.00;53.41;97232.91;4994732;28;20870;-68
2022/04/28 09:24:09;;;;;;;8.45;4.55;;;;;;;16.87;55.14;97243.44;4994608;28;20221;-68
2022/04/28 09:26:36;;;;;;;6.00;4.05;;;;;;;16.56;54.87;97245.59;4995699;28;20263;-68
2022/04/28 09:29:04;;;;;;;12.07;4.20;;;;;;;16.65;53.81;97242.63;4991056;28;20230;-69
2022/04/28 09:31:34;;;;;;;8.98;4.60;;;;;;;16.89;55.01;97241.41;4994676;28;20233;-68
2022/04/28 09:34:11;;;;;;;7.57;4.43;;;;;;;17.20;50.25;97238.19;4994266;28;20207;-68
2022/04/28 09:36:39;;;;;;;9.63;3.95;;;;;;;17.36;52.08;97229.09;4995002;28;20210;-68
2022/04/28 09:39:07;;;;;;;11.15;4.18;;;;;;;17.56;50.17;97228.22;4994636;28;20226;-68
2022/04/28 09:44:20;;;;;;;6.70;3.80;;;;;;;17.77;52.12;97225.47;4993710;28;20221;-69
2022/04/28 09:46:47;;;;;;;7.07;4.18;;;;;;;17.51;53.36;97233.31;4994725;28;20203;-68
2022/04/28 09:49:17;;;;;;;7.40;4.10;;;;;;;17.88;49.58;97222.22;4994959;28;20562;-68
2022/04/28 09:51:45;;;;;;;6.70;4.05;;;;;;;17.87;50.45;97221.41;4993904;28;20238;-68
2022/04/28 09:54:13;;;;;;;6.95;3.75;;;;;;;17.40;48.90;97223.22;4993774;28;20207;-68
2022/04/28 09:56:41;;;;;;;5.03;3.28;;;;;;;17.94;48.65;97224.13;4994435;28;20210;-69
2022/04/28 09:59:12;;;;;;;7.55;4.53;;;;;;;17.77;50.96;97222.81;4994742;28;20714;-68
2022/04/28 10:01:39;;;;;;;6.07;4.00;;;;;;;17.50;46.99;97230.84;4994426;28;20651;-68
2022/04/28 10:04:06;;;;;;;7.57;4.15;;;;;;;17.60;49.57;97229.47;4993574;28;20210;-68
2022/04/28 10:06:35;;;;;;;6.57;4.35;;;;;;;17.96;48.94;97230.91;4994318;28;20225;-68
2022/04/28 10:09:05;;;;;;;7.30;4.25;;;;;;;18.05;44.57;97221.72;4994175;28;20218;-68
2022/04/28 10:11:32;;;;;;;7.45;3.97;;;;;;;17.92;50.74;97223.47;4994375;28;20584;-68
2022/04/28 10:14:00;;;;;;;7.50;3.88;;;;;;;18.07;49.30;97226.84;4994059;28;20210;-68
2022/04/28 10:16:27;;;;;;;5.93;3.17;;;;;;;18.07;44.69;97229.50;4994360;28;20206;-68
2022/04/28 10:19:00;;;;;;;6.75;3.65;;;;;;;18.27;45.50;97223.25;4993673;28;20226;-68
2022/04/28 10:21:32;;;;;;;7.93;4.32;;;;;;;18.15;45.20;97226.66;4994351;28;20751;-68
2022/04/28 10:32:56;;;;;;;5.90;3.10;;;;;;;18.42;43.24;97221.25;4993031;28;20236;-68
2022/04/28 10:35:43;;;;;;;5.38;3.15;;;;;;;18.38;45.47;97220.81;4993598;28;20290;-68
2022/04/28 10:38:15;;;;;;;6.75;3.30;;;;;;;18.69;44.20;97226.44;4994926;28;20678;-69
2022/04/28 10:40:45;;;;;;;6.15;3.22;;;;;;;18.82;40.94;97223.78;4993747;28;20229;-69
2022/04/28 10:43:37;;;;;;;4.72;3.30;;;;;;;19.10;41.22;97240.47;4992957;28;20207;-69
2022/04/28 10:46:33;;;;;;;5.72;3.20;;;;;;;19.16;40.50;97223.63;4994284;28;20202;-69
2022/04/28 10:49:03;;;;;;;8.48;3.35;;;;;;;19.46;44.81;97222.16;4992144;28;20301;-69
2022/04/28 10:51:32;;;;;;;6.75;3.20;;;;;;;19.26;40.66;97229.38;4993625;28;20318;-69
2022/04/28 10:54:07;;;;;;;7.78;3.78;;;;;;;19.63;40.43;97233.00;4992701;28;20385;-69
2022/04/28 10:57:06;;;;;;;5.85;3.53;;;;;;;19.07;44.97;97232.88;4993590;28;20202;-69
2022/04/28 10:59:38;;;;;;;6.68;3.90;;;;;;;18.59;47.91;97228.66;4951854;28;20235;-69
2022/04/28 11:02:44;;;;;;;8.35;4.32;;;;;;;18.79;43.76;97234.03;4985323;28;20460;-69
2022/04/28 11:05:35;;;;;;;8.00;5.15;;;;;;;18.71;48.02;97234.22;4950645;28;20655;-69
2022/04/28 11:08:02;;;;;;;7.18;3.97;;;;;;;18.59;44.62;97238.53;4951261;28;20274;-69
2022/04/28 11:10:29;;;;;;;8.30;4.28;;;;;;;18.76;42.47;97234.44;4978923;28;20692;-69
2022/04/28 11:13:08;;;;;;;9.60;4.30;;;;;;;18.07;42.92;97234.84;4992765;28;20230;-69
2022/04/28 11:15:36;;;;;;;7.82;4.00;;;;;;;18.95;42.98;97231.78;4993397;28;20206;-69
2022/04/28 11:18:03;;;;;;;8.00;4.72;;;;;;;18.30;45.48;97232.69;4993257;28;20211;-69
2022/04/28 11:20:30;;;;;;;7.93;4.85;;;;;;;18.60;48.22;97227.66;4993624;28;20225;-69
2022/04/28 11:22:57;;;;;;;9.35;4.85;;;;;;;18.58;44.75;97227.03;4991891;28;20214;-69
2022/04/28 11:25:23;;;;;;;7.10;4.72;;;;;;;18.96;45.25;97222.75;4993132;28;20213;-69
2022/04/28 11:27:52;;;;;;;12.10;3.80;;;;;;;19.12;43.79;97222.41;4991111;28;20206;-69
2022/04/28 11:30:22;;;;;;;8.95;3.85;;;;;;;19.64;45.80;97223.97;4993336;28;20234;-69
2022/04/28 11:32:51;;;;;;;9.15;4.15;;;;;;;19.67;44.22;97228.09;4992414;28;20233;-69
2022/04/28 11:35:18;;;;;;;7.47;4.95;;;;;;;19.78;43.75;97225.59;4993236;28;20223;-69
2022/04/28 11:37:45;;;;;;;6.63;3.97;;;;;;;19.46;45.37;97222.16;4993154;28;20203;-69
2022/04/28 11:40:17;;;;;;;7.28;4.55;;;;;;;19.73;41.52;97209.34;4993147;28;20234;-69
2022/04/28 11:42:45;;;;;;;8.95;3.75;;;;;;;19.57;43.72;97216.97;4992338;28;20294;-69
2022/04/28 11:45:11;;;;;;;11.80;3.90;;;;;;;19.51;42.90;97230.38;4993453;28;20217;-69
2022/04/28 11:47:44;;;;;;;5.80;3.92;;;;;;;19.61;43.48;97221.72;4992820;28;20715;-69
2022/04/28 11:50:18;;;;;;;7.60;5.07;;;;;;;19.68;42.21;97230.53;4992662;28;20223;-69
2022/04/28 11:52:45;;;;;;;10.45;4.68;;;;;;;19.09;42.55;97233.47;4992919;28;20233;-69
2022/04/28 11:55:12;;;;;;;8.63;4.03;;;;;;;19.05;41.25;97227.72;4993155;28;20218;-69
2022/04/28 11:57:40;;;;;;;7.45;4.65;;;;;;;19.49;44.43;97213.69;4992557;28;20213;-69
2022/04/28 12:00:08;;;;;;;6.88;4.32;;;;;;;19.03;40.76;97224.41;4993058;28;20653;-69
2022/04/28 12:02:36;;;;;;;9.65;5.20;;;;;;;18.48;42.23;97228.44;4992122;28;20203;-69
2022/04/28 12:05:06;;;;;;;8.15;4.93;;;;;;;18.84;45.63;97235.09;4992634;28;20502;-69
2022/04/28 12:07:35;;;;;;;6.05;4.10;;;;;;;19.35;42.14;97223.59;4992929;28;20238;-69